Time;durP1;ratioP1;P1;durP2;ratioP2;P2;SDS_P1;SDS_P2;PMS_P1;PMS_P2;Temp;Humidity;BMP_temperature;BMP_pressure;BME280_temperature;BME280_humidity;BME280_pressure;Samples;Min_cycle;Max_cycle;Signal;HPM_P1;HPM_P2
2023/10/16 00:01:09;;;;;;;0.43;0.43;;;7.70;99.90;;;;;;5019939;28;20032;-85
2023/10/16 00:03:41;;;;;;;0.10;0.10;;;7.80;99.90;;;;;;5024021;28;20029;-85
2023/10/16 00:06:11;;;;;;;4.57;0.25;;;7.80;99.90;;;;;;5016993;28;20521;-84
2023/10/16 00:08:47;;;;;;;0.10;0.10;;;7.90;99.90;;;;;;5024169;28;20025;-85
2023/10/16 00:11:16;;;;;;;0.20;0.20;;;7.90;99.90;;;;;;5007182;28;20040;-85
2023/10/16 00:13:49;;;;;;;0.20;0.20;;;7.90;99.90;;;;;;5021430;28;20476;-86
2023/10/16 00:16:17;;;;;;;0.20;0.20;;;8.00;99.90;;;;;;5020917;28;20033;-85
2023/10/16 00:18:45;;;;;;;0.47;0.47;;;7.90;99.90;;;;;;5018546;28;20030;-86
2023/10/16 00:21:14;;;;;;;0.20;0.20;;;8.00;99.90;;;;;;5024506;28;21030;-86
2023/10/16 00:23:41;;;;;;;0.10;0.10;;;8.00;99.90;;;;;;5024199;28;20065;-84
2023/10/16 00:26:10;;;;;;;0.13;0.13;;;8.10;99.90;;;;;;5021224;28;20051;-86
2023/10/16 00:28:37;;;;;;;0.20;0.20;;;8.10;99.90;;;;;;5021946;28;20018;-85
2023/10/16 00:31:08;;;;;;;0.30;0.30;;;8.20;99.90;;;;;;5021867;28;20040;-86
2023/10/16 00:33:33;;;;;;;0.20;0.20;;;8.20;99.90;;;;;;5024200;28;20456;-86
2023/10/16 00:36:00;;;;;;;0.10;0.10;;;8.20;99.90;;;;;;5022983;28;20657;-86
2023/10/16 00:38:35;;;;;;;0.32;0.30;;;8.20;99.90;;;;;;5021276;28;20026;-86
2023/10/16 00:43:33;;;;;;;0.10;0.10;;;8.20;99.90;;;;;;5047013;28;20056;-86
2023/10/16 00:46:10;;;;;;;0.20;0.20;;;8.20;99.90;;;;;;5048706;28;20295;-85
2023/10/16 00:48:38;;;;;;;0.10;0.10;;;8.10;99.90;;;;;;5038574;28;20029;-84
2023/10/16 00:51:09;;;;;;;0.10;0.10;;;8.00;99.90;;;;;;5019955;28;20570;-85
2023/10/16 00:53:40;;;;;;;0.10;0.10;;;7.80;99.90;;;;;;5024075;28;20400;-86
2023/10/16 00:56:08;;;;;;;0.20;0.20;;;7.60;99.90;;;;;;5017685;28;20099;-86
2023/10/16 00:58:37;;;;;;;0.10;0.10;;;7.50;99.90;;;;;;5021507;28;20026;-85
2023/10/16 01:01:09;;;;;;;0.20;0.20;;;7.40;99.90;;;;;;5035577;28;20022;-84
2023/10/16 01:03:40;;;;;;;0.10;0.10;;;7.50;99.90;;;;;;5022703;28;20033;-85
2023/10/16 01:06:15;;;;;;;0.17;0.17;;;7.50;99.90;;;;;;5011463;28;20021;-85
2023/10/16 01:08:50;;;;;;;0.30;0.30;;;7.50;99.90;;;;;;5017017;28;20040;-85
2023/10/16 01:11:20;;;;;;;0.32;0.32;;;7.70;99.90;;;;;;5021761;28;20029;-85
2023/10/16 01:13:50;;;;;;;0.22;0.22;;;7.70;99.90;;;;;;5017497;28;20026;-85
2023/10/16 01:16:19;;;;;;;0.20;0.20;;;7.70;99.90;;;;;;5022130;28;20017;-85
2023/10/16 01:18:45;;;;;;;0.20;0.20;;;7.80;99.90;;;;;;5019892;28;20026;-85
2023/10/16 01:21:15;;;;;;;0.10;0.10;;;7.80;99.90;;;;;;5021225;28;20196;-84
2023/10/16 01:23:44;;;;;;;0.10;0.10;;;7.80;99.90;;;;;;5018345;28;20377;-85
2023/10/16 01:26:13;;;;;;;0.10;0.10;;;7.90;99.90;;;;;;5019978;28;20022;-85
2023/10/16 01:28:39;;;;;;;0.10;0.10;;;7.80;99.90;;;;;;5027545;28;20413;-84
2023/10/16 01:31:07;;;;;;;0.10;0.10;;;7.90;99.90;;;;;;5020934;28;20022;-86
2023/10/16 01:33:33;;;;;;;0.15;0.15;;;7.90;99.90;;;;;;5018819;28;20026;-86
2023/10/16 01:36:07;;;;;;;0.10;0.10;;;8.00;99.90;;;;;;5021044;28;20514;-85
2023/10/16 01:38:32;;;;;;;0.10;0.10;;;8.00;99.90;;;;;;5019837;28;20440;-84
2023/10/16 01:41:13;;;;;;;0.20;0.20;;;8.00;99.90;;;;;;5021538;28;20056;-86
2023/10/16 01:43:40;;;;;;;0.10;0.10;;;8.00;99.90;;;;;;5020824;28;20087;-86
2023/10/16 01:46:10;;;;;;;0.22;0.22;;;8.00;99.90;;;;;;5022243;28;20458;-86
2023/10/16 01:48:44;;;;;;;0.10;0.10;;;8.00;99.90;;;;;;5019173;28;20512;-85
2023/10/16 01:51:11;;;;;;;0.20;0.20;;;8.00;99.90;;;;;;5021646;28;20448;-86
2023/10/16 01:53:39;;;;;;;0.20;0.20;;;8.00;99.90;;;;;;5020141;28;20018;-85
2023/10/16 01:56:14;;;;;;;0.10;0.10;;;8.00;99.90;;;;;;5021557;28;20022;-86
2023/10/16 01:58:44;;;;;;;0.20;0.20;;;8.00;99.90;;;;;;5020535;28;20080;-86
2023/10/16 02:01:22;;;;;;;0.20;0.20;;;7.90;99.90;;;;;;5019498;28;20156;-85
2023/10/16 02:03:49;;;;;;;0.15;0.15;;;7.80;99.90;;;;;;5018684;28;20038;-85
2023/10/16 02:06:15;;;;;;;0.20;0.20;;;7.70;99.90;;;;;;5019809;28;20038;-84
2023/10/16 02:08:44;;;;;;;0.20;0.20;;;7.80;99.90;;;;;;5020817;28;20025;-84
2023/10/16 02:11:10;;;;;;;0.10;0.10;;;7.80;99.90;;;;;;5019831;28;20029;-84
2023/10/16 02:13:40;;;;;;;0.20;0.20;;;7.80;99.90;;;;;;5036872;28;20112;-85
2023/10/16 02:16:09;;;;;;;0.65;0.30;;;7.80;99.90;;;;;;5013466;28;20057;-85
2023/10/16 02:18:40;;;;;;;0.20;0.20;;;7.90;99.90;;;;;;5009307;28;20252;-85
2023/10/16 02:21:12;;;;;;;0.10;0.10;;;7.90;99.90;;;;;;5136217;23;20045;-85
2023/10/16 02:23:38;;;;;;;0.20;0.20;;;7.80;99.90;;;;;;5020171;28;20037;-85
2023/10/16 02:26:06;;;;;;;0.20;0.20;;;7.80;99.90;;;;;;5017488;28;20029;-84
2023/10/16 02:28:35;;;;;;;0.30;0.30;;;7.80;99.90;;;;;;5023441;28;20025;-85
2023/10/16 02:31:17;;;;;;;0.10;0.10;;;7.80;99.90;;;;;;5019360;28;20439;-84
2023/10/16 02:33:53;;;;;;;0.10;0.10;;;7.80;99.90;;;;;;5018358;28;20033;-84
2023/10/16 02:36:19;;;;;;;0.10;0.10;;;7.60;99.90;;;;;;5035765;28;20041;-84
2023/10/16 02:38:47;;;;;;;0.10;0.10;;;7.50;99.90;;;;;;5019969;28;20024;-85
2023/10/16 02:41:14;;;;;;;0.10;0.10;;;7.50;99.90;;;;;;5016019;28;20099;-84
2023/10/16 02:43:45;;;;;;;0.20;0.20;;;7.40;99.90;;;;;;5019813;28;20038;-84
2023/10/16 02:46:11;;;;;;;0.22;0.22;;;7.30;99.90;;;;;;5018430;28;20037;-85
2023/10/16 02:48:41;;;;;;;0.10;0.10;;;7.30;99.90;;;;;;5018533;28;20025;-84
2023/10/16 02:51:07;;;;;;;0.10;0.10;;;7.30;99.90;;;;;;5022228;28;20032;-84
2023/10/16 02:53:36;;;;;;;0.20;0.20;;;7.30;99.90;;;;;;5025777;28;20017;-84
2023/10/16 02:56:14;;;;;;;0.47;0.47;;;7.30;99.90;;;;;;5024820;28;20021;-85
2023/10/16 02:58:46;;;;;;;0.30;0.30;;;7.30;99.90;;;;;;5040010;28;20056;-84
2023/10/16 03:01:18;;;;;;;0.10;0.10;;;7.30;99.90;;;;;;5020867;28;20029;-84
2023/10/16 03:03:48;;;;;;;0.10;0.10;;;7.20;99.90;;;;;;5023149;28;20049;-84
2023/10/16 03:06:15;;;;;;;0.10;0.10;;;7.10;99.90;;;;;;5022483;28;20513;-84
2023/10/16 03:08:48;;;;;;;0.10;0.10;;;7.10;99.90;;;;;;5022910;28;20489;-84
2023/10/16 03:11:14;;;;;;;0.10;0.10;;;7.10;99.90;;;;;;5023934;28;20048;-84
2023/10/16 03:13:40;;;;;;;0.10;0.10;;;7.20;99.90;;;;;;5023560;28;20155;-85
2023/10/16 03:19:09;;;;;;;0.20;0.20;;;7.20;99.90;;;;;;5043185;28;20474;-84
2023/10/16 03:21:35;;;;;;;0.10;0.10;;;7.20;99.90;;;;;;5022716;28;20037;-84
2023/10/16 03:24:01;;;;;;;0.10;0.10;;;7.20;99.90;;;;;;5021780;28;20492;-84
2023/10/16 03:26:30;;;;;;;0.10;0.10;;;7.20;99.90;;;;;;5022259;28;20029;-84
2023/10/16 03:28:56;;;;;;;0.13;0.13;;;7.00;99.90;;;;;;5020078;28;20059;-84
2023/10/16 03:31:23;;;;;;;0.10;0.10;;;6.80;99.90;;;;;;5028248;28;20032;-85
2023/10/16 03:33:50;;;;;;;0.10;0.10;;;6.70;99.90;;;;;;5021624;28;20029;-84
2023/10/16 03:36:17;;;;;;;0.10;0.10;;;6.70;99.90;;;;;;5021059;28;20398;-84
2023/10/16 03:38:43;;;;;;;0.00;0.00;;;6.60;99.90;;;;;;5023006;28;20108;-85
2023/10/16 03:43:48;;;;;;;0.10;0.10;;;6.70;99.90;;;;;;5023732;28;20080;-84
2023/10/16 03:46:14;;;;;;;0.10;0.10;;;6.70;99.90;;;;;;5020949;28;20458;-85
2023/10/16 03:48:40;;;;;;;0.17;0.17;;;6.70;99.90;;;;;;5036986;28;20105;-85
2023/10/16 03:51:06;;;;;;;0.10;0.10;;;6.70;99.90;;;;;;5020954;28;20017;-84
2023/10/16 03:53:36;;;;;;;0.10;0.10;;;6.80;99.90;;;;;;5020913;28;20024;-83
2023/10/16 03:56:03;;;;;;;0.10;0.10;;;6.70;99.90;;;;;;5024117;28;20053;-84
2023/10/16 03:58:33;;;;;;;0.10;0.10;;;6.80;99.90;;;;;;5029597;28;20112;-84
2023/10/16 04:01:07;;;;;;;0.20;0.20;;;6.90;99.90;;;;;;5022406;28;20041;-85
2023/10/16 04:03:46;;;;;;;0.10;0.10;;;6.90;99.90;;;;;;5021786;28;20037;-84
2023/10/16 04:06:19;;;;;;;0.10;0.10;;;7.00;99.90;;;;;;5020439;28;20022;-84
2023/10/16 04:08:58;;;;;;;0.10;0.10;;;7.00;99.90;;;;;;5036289;28;20644;-84
2023/10/16 04:11:24;;;;;;;0.15;0.15;;;7.00;99.90;;;;;;5021229;28;20026;-85
2023/10/16 04:13:52;;;;;;;0.10;0.10;;;7.10;99.90;;;;;;5020501;28;20881;-85
2023/10/16 04:21:50;;;;;;;0.25;0.25;;;7.10;99.90;;;;;;5045323;28;20021;-84
2023/10/16 04:27:28;;;;;;;0.10;0.10;;;7.00;99.90;;;;;;5023657;28;20473;-84
2023/10/16 04:29:49;;;;;;;0.63;0.63;;;7.10;99.90;;;;;;5022843;28;20049;-85
2023/10/16 04:35:03;;;;;;;0.10;0.10;;;7.10;99.90;;;;;;5023130;28;20303;-84
2023/10/16 04:37:40;;;;;;;0.10;0.10;;;7.20;99.90;;;;;;5030185;28;20497;-85
2023/10/16 04:45:24;;;;;;;0.15;0.15;;;7.20;99.90;;;;;;5018886;28;20063;-83
2023/10/16 04:50:30;;;;;;;0.10;0.10;;;7.20;99.90;;;;;;5022254;28;20481;-84
2023/10/16 05:11:32;;;;;;;0.10;0.10;;;7.30;99.90;;;;;;5020074;28;20033;-84
2023/10/16 05:14:22;;;;;;;0.45;0.45;;;7.40;99.90;;;;;;5017880;28;20378;-84
2023/10/16 05:16:53;;;;;;;0.10;0.10;;;7.40;99.90;;;;;;5035914;28;20029;-84
2023/10/16 06:14:21;;;;;;;0.20;0.20;;;7.50;99.90;;;;;;5021262;28;20393;-83
2023/10/16 06:16:52;;;;;;;0.10;0.10;;;7.50;99.90;;;;;;5015918;28;20103;-84
2023/10/16 06:19:18;;;;;;;0.10;0.10;;;7.40;99.90;;;;;;5018795;28;20052;-83
2023/10/16 06:21:50;;;;;;;0.10;0.10;;;7.40;99.90;;;;;;5019189;28;20545;-85
2023/10/16 06:24:35;;;;;;;0.10;0.10;;;7.30;99.90;;;;;;5017783;28;20037;-83
2023/10/16 06:27:09;;;;;;;0.10;0.10;;;7.30;99.90;;;;;;5018884;28;20556;-83
2023/10/16 06:29:49;;;;;;;0.30;0.30;;;7.30;99.90;;;;;;5034538;28;20535;-84
2023/10/16 06:32:23;;;;;;;0.20;0.20;;;7.50;99.90;;;;;;5014360;28;20068;-84
2023/10/16 06:35:02;;;;;;;0.85;0.65;;;7.50;99.90;;;;;;5035192;28;20393;-84
2023/10/16 06:37:32;;;;;;;0.20;0.20;;;7.40;99.90;;;;;;5017903;28;20018;-83
2023/10/16 06:40:00;;;;;;;0.30;0.30;;;7.30;99.90;;;;;;5019322;28;20025;-84
2023/10/16 06:42:29;;;;;;;0.10;0.10;;;7.30;99.90;;;;;;5025371;28;20025;-84
2023/10/16 06:45:42;;;;;;;0.10;0.10;;;7.30;99.90;;;;;;5017985;28;20076;-84
2023/10/16 06:47:47;;;;;;;0.10;0.10;;;7.50;99.90;;;;;;5018262;28;20432;-83
2023/10/16 06:52:52;;;;;;;0.20;0.20;;;7.50;99.90;;;;;;5021230;28;20053;-87
2023/10/16 06:55:18;;;;;;;0.10;0.10;;;7.50;99.90;;;;;;5019285;28;20104;-82
2023/10/16 06:57:46;;;;;;;0.20;0.20;;;7.40;99.90;;;;;;5021831;28;20022;-83
2023/10/16 07:00:33;;;;;;;0.35;0.35;;;7.50;99.90;;;;;;5019151;28;20429;-82
2023/10/16 07:03:01;;;;;;;0.10;0.10;;;7.50;99.90;;;;;;5018850;28;20045;-83
2023/10/16 07:05:43;;;;;;;0.20;0.20;;;7.60;99.90;;;;;;5017456;28;20018;-83
2023/10/16 07:08:19;;;;;;;0.20;0.20;;;7.70;99.90;;;;;;5033762;28;20025;-83
2023/10/16 07:10:51;;;;;;;0.20;0.20;;;7.80;99.90;;;;;;5032411;28;20515;-83
2023/10/16 07:13:28;;;;;;;0.80;0.80;;;7.80;99.90;;;;;;5019696;28;20511;-85
2023/10/16 07:16:03;;;;;;;0.40;0.40;;;7.80;99.90;;;;;;5035684;28;20021;-82
2023/10/16 07:18:33;;;;;;;0.20;0.20;;;7.70;99.90;;;;;;5013972;28;20022;-81
2023/10/16 07:21:07;;;;;;;0.20;0.20;;;7.70;99.90;;;;;;5019118;28;20034;-83
2023/10/16 07:23:37;;;;;;;0.20;0.20;;;7.80;99.90;;;;;;5015191;28;20405;-80
2023/10/16 07:26:04;;;;;;;0.13;0.13;;;7.90;99.90;;;;;;5023713;28;20029;-80
2023/10/16 07:28:31;;;;;;;0.50;0.50;;;8.10;99.90;;;;;;5023774;28;20025;-81
2023/10/16 07:30:58;;;;;;;0.30;0.30;;;8.20;99.90;;;;;;5019881;28;20470;-82
2023/10/16 07:33:25;;;;;;;0.20;0.20;;;8.30;99.90;;;;;;5017929;28;20064;-80
2023/10/16 07:35:52;;;;;;;0.70;0.45;;;8.40;99.90;;;;;;5015688;28;20522;-83
2023/10/16 07:38:20;;;;;;;0.20;0.20;;;8.50;99.90;;;;;;5024399;28;20079;-85
2023/10/16 07:40:59;;;;;;;0.10;0.10;;;8.50;99.90;;;;;;5022563;28;20114;-85
2023/10/16 07:43:32;;;;;;;0.30;0.30;;;8.60;99.90;;;;;;5037979;28;20140;-83
2023/10/16 07:48:40;;;;;;;0.20;0.20;;;8.70;99.90;;;;;;5024531;28;20038;-83
2023/10/16 07:51:07;;;;;;;0.10;0.10;;;8.80;99.90;;;;;;5021276;28;20337;-83
2023/10/16 07:53:37;;;;;;;0.20;0.20;;;8.80;99.90;;;;;;5040788;28;20095;-84
2023/10/16 07:56:19;;;;;;;0.30;0.30;;;8.90;99.90;;;;;;5043731;28;20045;-83
2023/10/16 07:58:54;;;;;;;0.80;0.80;;;9.00;99.90;;;;;;5047521;28;20026;-85
2023/10/16 08:01:32;;;;;;;0.30;0.30;;;8.90;99.90;;;;;;5048983;28;20012;-83
2023/10/16 08:04:01;;;;;;;0.28;0.28;;;9.10;99.90;;;;;;5042392;28;20072;-84
2023/10/16 08:06:28;;;;;;;0.17;0.17;;;9.10;99.90;;;;;;5028485;28;20074;-84
2023/10/16 08:11:42;;;;;;;0.30;0.30;;;8.70;99.90;;;;;;5023075;28;20553;-83
2023/10/16 08:14:09;;;;;;;0.20;0.20;;;8.70;99.90;;;;;;5024454;28;20040;-82
2023/10/16 08:16:34;;;;;;;0.10;0.10;;;8.80;99.90;;;;;;5022926;28;20021;-83
2023/10/16 08:19:04;;;;;;;0.30;0.30;;;8.80;99.90;;;;;;5038742;28;20573;-84
2023/10/16 08:21:32;;;;;;;0.30;0.30;;;8.90;99.90;;;;;;5022383;28;20033;-83
2023/10/16 08:23:59;;;;;;;0.20;0.20;;;9.10;99.90;;;;;;5024338;28;20136;-82
2023/10/16 08:26:41;;;;;;;0.65;0.40;;;9.30;99.90;;;;;;5021896;28;20022;-83
2023/10/16 08:29:18;;;;;;;0.30;0.30;;;9.60;99.90;;;;;;5022718;28;20061;-83
2023/10/16 08:31:46;;;;;;;0.25;0.25;;;9.60;99.90;;;;;;5021461;28;20762;-85
2023/10/16 08:34:13;;;;;;;0.20;0.20;;;9.80;99.90;;;;;;5022164;28;20035;-83
2023/10/16 08:36:39;;;;;;;0.40;0.40;;;9.80;99.90;;;;;;5039199;28;20613;-83
2023/10/16 08:39:15;;;;;;;0.20;0.20;;;9.80;99.90;;;;;;5021566;28;20044;-87
2023/10/16 08:42:00;;;;;;;0.35;0.35;;;9.80;99.90;;;;;;5039837;28;20060;-84
2023/10/16 08:44:28;;;;;;;0.20;0.20;;;9.90;99.90;;;;;;5021308;28;20453;-82
2023/10/16 08:49:26;;;;;;;0.50;0.50;;;10.00;99.90;;;;;;5021232;28;20026;-82
2023/10/16 08:52:03;;;;;;;0.30;0.30;;;10.20;99.90;;;;;;5021757;28;20037;-83
2023/10/16 08:57:16;;;;;;;0.30;0.30;;;10.40;99.90;;;;;;5024535;28;20052;-85
2023/10/16 08:59:43;;;;;;;0.30;0.30;;;10.40;99.90;;;;;;5020222;28;20029;-82
2023/10/16 09:02:13;;;;;;;0.30;0.30;;;10.40;99.90;;;;;;5022465;28;20255;-85
2023/10/16 09:04:43;;;;;;;0.57;0.57;;;10.30;99.90;;;;;;5020334;28;20041;-85
2023/10/16 09:07:11;;;;;;;0.20;0.20;;;10.50;99.90;;;;;;5022332;28;20031;-84
2023/10/16 09:09:41;;;;;;;0.10;0.10;;;10.50;99.90;;;;;;5023643;28;20029;-84
2023/10/16 09:12:10;;;;;;;0.20;0.20;;;10.70;99.90;;;;;;5021218;28;20479;-85
2023/10/16 09:14:39;;;;;;;0.40;0.40;;;10.90;99.90;;;;;;5023326;28;20040;-82
2023/10/16 09:17:09;;;;;;;0.10;0.10;;;10.90;99.90;;;;;;5026499;28;20156;-85
2023/10/16 09:19:45;;;;;;;0.52;0.30;;;11.10;99.90;;;;;;5015221;28;20453;-79
2023/10/16 09:22:13;;;;;;;0.50;0.50;;;11.50;99.90;;;;;;5019556;28;20037;-82
2023/10/16 09:24:44;;;;;;;1.08;0.30;;;12.00;99.90;;;;;;5020034;28;20087;-80
2023/10/16 09:27:53;;;;;;;0.20;0.20;;;12.30;99.90;;;;;;5020485;28;20028;-81
2023/10/16 09:30:01;;;;;;;1.15;0.70;;;12.50;99.90;;;;;;5020039;28;20067;-79
2023/10/16 09:32:36;;;;;;;0.63;0.52;;;12.60;99.90;;;;;;5016643;28;20052;-80
2023/10/16 09:35:06;;;;;;;0.30;0.30;;;12.60;99.90;;;;;;5022180;28;20107;-83
2023/10/16 09:37:40;;;;;;;0.30;0.30;;;12.60;99.90;;;;;;5020379;28;20072;-83
2023/10/16 09:40:19;;;;;;;0.30;0.30;;;12.80;99.90;;;;;;5020618;28;20041;-83
2023/10/16 09:43:08;;;;;;;0.40;0.40;;;13.30;99.90;;;;;;5026728;28;20033;-83
2023/10/16 09:45:35;;;;;;;1.65;0.60;;;13.80;99.90;;;;;;5018821;28;20124;-82
2023/10/16 09:48:08;;;;;;;0.30;0.30;;;14.20;99.90;;;;;;5019610;28;20137;-83
2023/10/16 09:50:38;;;;;;;0.25;0.25;;;14.50;99.90;;;;;;5015603;28;20103;-83
2023/10/16 09:53:07;;;;;;;0.40;0.40;;;14.70;99.90;;;;;;5016475;28;20025;-83
2023/10/16 09:55:39;;;;;;;1.10;0.40;;;14.90;99.90;;;;;;5020412;28;20473;-83
2023/10/16 09:58:09;;;;;;;0.50;0.50;;;15.20;99.90;;;;;;5018377;28;20037;-83
2023/10/16 10:00:44;;;;;;;0.40;0.40;;;15.30;99.90;;;;;;5019580;28;20026;-83
2023/10/16 10:03:13;;;;;;;0.65;0.45;;;15.40;99.90;;;;;;5018984;28;20478;-83
2023/10/16 10:06:07;;;;;;;0.25;0.25;;;15.70;99.90;;;;;;5018513;28;20071;-83
2023/10/16 10:09:20;;;;;;;0.50;0.50;;;15.80;99.90;;;;;;5020103;28;20032;-82
2023/10/16 10:11:47;;;;;;;0.40;0.40;;;16.00;99.90;;;;;;5019600;28;20041;-82
2023/10/16 10:16:57;;;;;;;0.70;0.70;;;16.40;99.90;;;;;;5017117;28;20556;-84
2023/10/16 10:19:46;;;;;;;0.68;0.68;;;16.40;99.90;;;;;;5020652;28;20025;-84
2023/10/16 10:22:22;;;;;;;0.35;0.35;;;16.40;99.90;;;;;;5018412;28;20049;-83
2023/10/16 10:25:07;;;;;;;0.35;0.35;;;16.40;99.90;;;;;;5032147;28;20034;-83
2023/10/16 10:27:34;;;;;;;0.40;0.40;;;16.40;99.90;;;;;;5015289;28;20183;-81
2023/10/16 10:30:03;;;;;;;0.30;0.30;;;16.50;99.90;;;;;;5014768;28;20432;-85
2023/10/16 10:32:32;;;;;;;0.38;0.38;;;16.70;99.90;;;;;;5017080;28;20531;-86
2023/10/16 10:35:31;;;;;;;0.63;0.63;;;16.60;99.90;;;;;;5020104;28;20029;-86
2023/10/16 10:38:26;;;;;;;0.40;0.40;;;16.70;99.90;;;;;;5021596;28;20104;-86
2023/10/16 10:41:08;;;;;;;0.47;0.47;;;16.80;99.90;;;;;;5018526;28;20030;-83
2023/10/16 10:43:48;;;;;;;0.30;0.30;;;16.80;99.90;;;;;;5021140;28;20057;-83
2023/10/16 10:46:27;;;;;;;0.52;0.52;;;17.10;99.90;;;;;;5018282;28;20022;-82
2023/10/16 10:48:56;;;;;;;0.43;0.43;;;17.20;99.90;;;;;;5031520;28;20041;-83
2023/10/16 10:51:22;;;;;;;0.35;0.35;;;17.40;99.90;;;;;;5019680;28;20037;-82
2023/10/16 10:53:55;;;;;;;0.40;0.40;;;17.30;99.90;;;;;;5021462;28;20566;-82
2023/10/16 10:56:21;;;;;;;;;;;17.00;99.90;;;;;;5018862;28;20115;-82
2023/10/16 10:58:47;;;;;;;0.30;0.30;;;17.10;99.90;;;;;;5020145;28;19979;-83
2023/10/16 11:01:26;;;;;;;0.40;0.40;;;17.10;99.90;;;;;;5021444;28;20021;-82
2023/10/16 11:03:54;;;;;;;0.43;0.43;;;17.10;99.90;;;;;;5023916;28;20053;-83
2023/10/16 11:06:38;;;;;;;0.35;0.35;;;16.70;99.90;;;;;;5018347;28;20038;-83
2023/10/16 11:09:11;;;;;;;1.65;0.77;;;16.70;99.90;;;;;;5032306;28;20037;-83
2023/10/16 11:11:40;;;;;;;;;;;16.90;99.90;;;;;;5027462;28;20021;-84
2023/10/16 11:14:07;;;;;;;0.45;0.45;;;16.70;99.90;;;;;;5039560;28;20008;-83
2023/10/16 11:16:43;;;;;;;0.43;0.43;;;16.50;99.90;;;;;;5022963;28;20045;-83
2023/10/16 11:19:09;;;;;;;0.60;0.30;;;16.40;99.90;;;;;;5014711;28;20021;-86
2023/10/16 11:21:43;;;;;;;0.68;0.68;;;16.70;99.90;;;;;;5025421;28;20037;-87
2023/10/16 11:24:10;;;;;;;0.73;0.73;;;17.00;99.90;;;;;;5021068;28;20029;-83
2023/10/16 11:26:38;;;;;;;0.20;0.20;;;17.20;99.90;;;;;;5020186;28;20088;-83
2023/10/16 11:29:04;;;;;;;0.40;0.40;;;17.30;99.90;;;;;;5025059;28;20025;-83
2023/10/16 11:31:30;;;;;;;0.47;0.47;;;17.20;99.90;;;;;;5035215;28;20103;-83
2023/10/16 11:34:02;;;;;;;0.32;0.32;;;17.30;99.90;;;;;;5046026;28;20021;-83
2023/10/16 11:36:29;;;;;;;0.52;0.52;;;17.20;99.90;;;;;;5046472;28;20101;-84
2023/10/16 11:39:01;;;;;;;0.30;0.30;;;16.90;99.90;;;;;;5036246;28;20037;-82
2023/10/16 11:41:28;;;;;;;0.55;0.55;;;16.80;99.90;;;;;;5022515;28;20017;-82
2023/10/16 11:43:55;;;;;;;0.50;0.50;;;16.90;99.90;;;;;;5023293;28;20041;-82
2023/10/16 11:46:44;;;;;;;0.45;0.40;;;16.90;99.90;;;;;;5022715;28;20869;-81
2023/10/16 11:52:19;;;;;;;0.43;0.43;;;17.00;99.90;;;;;;5023442;28;20568;-80
2023/10/16 11:54:46;;;;;;;0.30;0.30;;;17.00;99.90;;;;;;5016103;28;20038;-83
2023/10/16 11:57:13;;;;;;;0.80;0.80;;;16.80;99.90;;;;;;5021868;28;20033;-83
2023/10/16 11:59:40;;;;;;;0.40;0.40;;;16.70;99.90;;;;;;5017217;28;20100;-82
2023/10/16 12:02:12;;;;;;;0.40;0.40;;;16.80;99.90;;;;;;5019436;28;20042;-83
2023/10/16 12:04:40;;;;;;;0.35;0.35;;;16.80;99.90;;;;;;5021921;28;20048;-82
2023/10/16 12:07:07;;;;;;;0.20;0.20;;;16.70;99.90;;;;;;5022978;28;20474;-81
2023/10/16 12:09:37;;;;;;;0.20;0.20;;;16.80;99.90;;;;;;5019854;28;20025;-82
2023/10/16 12:12:06;;;;;;;0.40;0.40;;;16.90;99.90;;;;;;5023637;28;20485;-82
2023/10/16 12:14:37;;;;;;;0.22;0.22;;;16.90;99.90;;;;;;5020138;28;20021;-82
2023/10/16 12:17:06;;;;;;;0.30;0.30;;;16.90;99.90;;;;;;5021562;28;20029;-82
2023/10/16 12:19:34;;;;;;;0.25;0.25;;;16.90;99.90;;;;;;5020577;28;20531;-82
2023/10/16 12:22:00;;;;;;;0.40;0.40;;;16.80;99.90;;;;;;5021465;28;20032;-83
2023/10/16 12:24:29;;;;;;;0.30;0.30;;;16.60;99.90;;;;;;5015806;28;20444;-83
2023/10/16 12:26:54;;;;;;;0.35;0.35;;;16.50;99.90;;;;;;5019894;28;20525;-79
2023/10/16 12:29:20;;;;;;;0.50;0.50;;;16.50;99.90;;;;;;5021678;28;20099;-83
2023/10/16 12:31:48;;;;;;;0.45;0.45;;;16.50;99.90;;;;;;5021298;28;20120;-83
2023/10/16 12:34:16;;;;;;;0.47;0.47;;;16.50;99.90;;;;;;5014044;28;20033;-83
2023/10/16 12:36:43;;;;;;;0.40;0.40;;;16.40;99.90;;;;;;5019020;28;20026;-82
2023/10/16 12:39:24;;;;;;;0.47;0.47;;;16.50;99.90;;;;;;5037701;28;20025;-82
2023/10/16 12:41:54;;;;;;;0.70;0.70;;;16.40;99.90;;;;;;5014877;28;20032;-83
2023/10/16 12:44:26;;;;;;;0.20;0.20;;;16.40;99.90;;;;;;5032917;28;20562;-83
2023/10/16 12:46:53;;;;;;;0.30;0.30;;;16.50;99.90;;;;;;5015917;28;20095;-80
2023/10/16 12:49:20;;;;;;;0.35;0.35;;;16.50;99.90;;;;;;5019276;28;20115;-81
2023/10/16 12:51:48;;;;;;;0.43;0.43;;;16.60;99.90;;;;;;5020317;28;20032;-82
2023/10/16 12:54:15;;;;;;;0.93;0.85;;;16.50;99.90;;;;;;5013170;28;20772;-83
2023/10/16 12:56:43;;;;;;;0.30;0.30;;;16.70;99.90;;;;;;5020437;28;20056;-82
2023/10/16 12:59:10;;;;;;;2.05;0.52;;;16.60;99.90;;;;;;5020704;28;20033;-82
2023/10/16 13:01:38;;;;;;;0.32;0.32;;;16.80;99.90;;;;;;5017890;28;20033;-82
2023/10/16 13:04:13;;;;;;;0.22;0.22;;;17.00;99.90;;;;;;5023214;28;20026;-82
2023/10/16 13:06:43;;;;;;;1.25;0.70;;;17.20;99.90;;;;;;5019382;28;20033;-82
2023/10/16 13:09:16;;;;;;;0.30;0.30;;;17.30;99.90;;;;;;5014611;28;20473;-82
2023/10/16 13:11:42;;;;;;;0.20;0.20;;;17.40;99.90;;;;;;5022307;28;20068;-82
2023/10/16 13:14:08;;;;;;;0.30;0.30;;;17.50;99.90;;;;;;5025607;28;20038;-82
2023/10/16 13:16:33;;;;;;;0.50;0.50;;;17.50;99.90;;;;;;5025451;28;20036;-82
2023/10/16 13:19:02;;;;;;;0.30;0.30;;;17.70;99.90;;;;;;5019910;28;20028;-89
2023/10/16 13:21:34;;;;;;;0.40;0.40;;;17.70;99.90;;;;;;5021531;28;20037;-83
2023/10/16 13:24:01;;;;;;;0.30;0.30;;;17.70;99.90;;;;;;5021531;28;20037;-89
2023/10/16 13:26:29;;;;;;;0.30;0.30;;;17.80;99.90;;;;;;5020252;28;20033;-88
2023/10/16 13:28:54;;;;;;;0.20;0.20;;;17.90;99.50;;;;;;5024352;28;20024;-87
2023/10/16 13:31:23;;;;;;;0.20;0.20;;;18.10;98.80;;;;;;5013696;28;20389;-88
2023/10/16 13:33:50;;;;;;;0.25;0.25;;;18.00;99.20;;;;;;5035366;28;20022;-86
2023/10/16 13:36:17;;;;;;;0.40;0.40;;;18.10;99.30;;;;;;5044598;28;20035;-88
2023/10/16 13:38:53;;;;;;;0.20;0.20;;;18.20;99.30;;;;;;5025137;28;20091;-83
2023/10/16 13:41:19;;;;;;;0.28;0.28;;;18.20;98.60;;;;;;5022383;28;20021;-84
2023/10/16 13:43:46;;;;;;;0.20;0.20;;;18.20;98.30;;;;;;5021070;28;20063;-82
2023/10/16 13:46:13;;;;;;;0.40;0.40;;;18.10;98.70;;;;;;5022297;28;20029;-82
2023/10/16 13:48:45;;;;;;;0.65;0.40;;;17.80;99.00;;;;;;5020103;28;20601;-82
2023/10/16 13:51:13;;;;;;;0.22;0.22;;;17.80;99.30;;;;;;5023231;28;20741;-87
2023/10/16 13:53:39;;;;;;;0.30;0.30;;;17.90;98.90;;;;;;5022506;28;20458;-89
2023/10/16 13:56:05;;;;;;;0.40;0.40;;;17.90;98.90;;;;;;5023630;28;20098;-89
2023/10/16 13:58:33;;;;;;;0.50;0.50;;;18.10;98.80;;;;;;5029145;28;20466;-82
2023/10/16 14:00:58;;;;;;;0.35;0.35;;;18.10;98.10;;;;;;5024318;28;20025;-87
2023/10/16 14:03:24;;;;;;;0.25;0.25;;;18.10;98.90;;;;;;5031947;28;20041;-88
2023/10/16 14:05:54;;;;;;;0.47;0.47;;;18.10;98.70;;;;;;5023064;28;20018;-88
2023/10/16 14:08:30;;;;;;;0.30;0.30;;;18.10;98.10;;;;;;5024237;28;20097;-87
2023/10/16 14:11:00;;;;;;;0.20;0.20;;;18.20;99.10;;;;;;5021699;28;20025;-87
2023/10/16 14:13:27;;;;;;;0.30;0.30;;;18.00;98.90;;;;;;5012017;28;20021;-88
2023/10/16 14:18:33;;;;;;;0.30;0.30;;;18.10;98.30;;;;;;5020698;28;20060;-83
2023/10/16 14:21:08;;;;;;;0.50;0.50;;;18.00;98.30;;;;;;5021903;28;20064;-88
2023/10/16 14:23:35;;;;;;;0.52;0.52;;;18.10;97.80;;;;;;5017053;28;20029;-82
2023/10/16 14:26:01;;;;;;;0.30;0.30;;;18.10;98.40;;;;;;5011213;28;20029;-82
2023/10/16 14:31:01;;;;;;;0.20;0.20;;;18.00;97.50;;;;;;5018177;28;20025;-83
2023/10/16 14:33:29;;;;;;;0.28;0.28;;;18.10;96.40;;;;;;5028828;28;20087;-84
2023/10/16 14:35:56;;;;;;;0.20;0.20;;;17.80;96.40;;;;;;5012633;28;20512;-82
2023/10/16 14:38:23;;;;;;;0.20;0.20;;;17.50;96.20;;;;;;5011281;28;20457;-83
2023/10/16 14:40:49;;;;;;;0.30;0.30;;;17.50;96.10;;;;;;5014317;28;20031;-83
2023/10/16 14:43:17;;;;;;;0.20;0.20;;;17.50;96.00;;;;;;5013775;28;20033;-83
2023/10/16 14:45:50;;;;;;;0.50;0.50;;;17.30;96.70;;;;;;5016968;28;20044;-83
2023/10/16 14:48:16;;;;;;;0.30;0.30;;;17.30;96.50;;;;;;5018887;28;20048;-83
2023/10/16 14:50:44;;;;;;;0.20;0.20;;;17.20;97.00;;;;;;5019252;28;20029;-84
2023/10/16 14:53:11;;;;;;;0.20;0.20;;;17.10;97.00;;;;;;5035061;28;20603;-83
2023/10/16 14:55:37;;;;;;;0.30;0.30;;;16.90;97.40;;;;;;5016466;28;20031;-84
2023/10/16 14:58:03;;;;;;;0.25;0.25;;;16.80;97.50;;;;;;5022096;28;20022;-84
2023/10/16 15:00:32;;;;;;;0.28;0.28;;;16.90;98.10;;;;;;5019410;28;20060;-83
2023/10/16 15:03:00;;;;;;;0.30;0.20;;;17.10;97.50;;;;;;5020075;28;20572;-82
2023/10/16 15:05:26;;;;;;;0.20;0.20;;;17.20;97.30;;;;;;5034627;28;20029;-84
2023/10/16 15:07:52;;;;;;;0.28;0.28;;;17.20;97.70;;;;;;5046475;28;20026;-84
2023/10/16 15:10:18;;;;;;;0.38;0.38;;;17.30;97.00;;;;;;5047825;28;20154;-83
2023/10/16 15:12:47;;;;;;;0.40;0.40;;;17.30;97.20;;;;;;5029033;28;20033;-83
2023/10/16 15:15:13;;;;;;;0.35;0.35;;;17.30;97.00;;;;;;5025902;28;20029;-83